sensor_id;sensor_type;location;lat;lon;timestamp;P1;durP1;ratioP1;P2;durP2;ratioP2
21492;SDS011;10908;50.690;4.400;2022-12-29T00:01:36;3.78;;;0.88;;
21492;SDS011;10908;50.690;4.400;2022-12-29T00:04:02;4.38;;;0.75;;
21492;SDS011;10908;50.690;4.400;2022-12-29T00:06:28;6.55;;;0.75;;
21492;SDS011;10908;50.690;4.400;2022-12-29T00:08:55;2.20;;;0.70;;
21492;SDS011;10908;50.690;4.400;2022-12-29T00:11:22;3.33;;;0.70;;
21492;SDS011;10908;50.690;4.400;2022-12-29T00:13:49;1.90;;;0.60;;
21492;SDS011;10908;50.690;4.400;2022-12-29T00:16:35;3.90;;;0.60;;
21492;SDS011;10908;50.690;4.400;2022-12-29T00:19:02;4.50;;;0.95;;
21492;SDS011;10908;50.690;4.400;2022-12-29T00:21:28;2.22;;;0.70;;
21492;SDS011;10908;50.690;4.400;2022-12-29T00:24:14;3.00;;;0.70;;
21492;SDS011;10908;50.690;4.400;2022-12-29T00:29:47;5.57;;;0.70;;
21492;SDS011;10908;50.690;4.400;2022-12-29T00:32:35;2.63;;;0.55;;
21492;SDS011;10908;50.690;4.400;2022-12-29T00:35:30;3.28;;;0.63;;
21492;SDS011;10908;50.690;4.400;2022-12-29T00:38:02;3.92;;;1.35;;
21492;SDS011;10908;50.690;4.400;2022-12-29T00:40:49;3.65;;;0.70;;
21492;SDS011;10908;50.690;4.400;2022-12-29T00:43:33;5.20;;;0.77;;
21492;SDS011;10908;50.690;4.400;2022-12-29T00:46:17;5.45;;;0.90;;
21492;SDS011;10908;50.690;4.400;2022-12-29T00:48:43;5.93;;;0.77;;
21492;SDS011;10908;50.690;4.400;2022-12-29T00:51:28;4.43;;;0.80;;
21492;SDS011;10908;50.690;4.400;2022-12-29T00:53:53;3.53;;;0.80;;
21492;SDS011;10908;50.690;4.400;2022-12-29T00:56:19;4.15;;;0.80;;
21492;SDS011;10908;50.690;4.400;2022-12-29T00:58:45;5.30;;;1.00;;
21492;SDS011;10908;50.690;4.400;2022-12-29T01:01:10;3.95;;;0.88;;
21492;SDS011;10908;50.690;4.400;2022-12-29T01:03:36;5.38;;;1.02;;
21492;SDS011;10908;50.690;4.400;2022-12-29T01:06:04;3.88;;;0.80;;
21492;SDS011;10908;50.690;4.400;2022-12-29T01:08:35;3.42;;;0.85;;
21492;SDS011;10908;50.690;4.400;2022-12-29T01:13:33;5.20;;;1.20;;
21492;SDS011;10908;50.690;4.400;2022-12-29T01:15:59;5.00;;;1.20;;
21492;SDS011;10908;50.690;4.400;2022-12-29T01:18:27;3.30;;;1.00;;
21492;SDS011;10908;50.690;4.400;2022-12-29T01:21:02;5.25;;;1.02;;
21492;SDS011;10908;50.690;4.400;2022-12-29T01:23:30;5.35;;;1.20;;
21492;SDS011;10908;50.690;4.400;2022-12-29T01:25:56;5.18;;;1.00;;
21492;SDS011;10908;50.690;4.400;2022-12-29T01:28:22;5.28;;;1.23;;
21492;SDS011;10908;50.690;4.400;2022-12-29T01:30:48;7.28;;;1.13;;
21492;SDS011;10908;50.690;4.400;2022-12-29T01:33:13;6.63;;;1.33;;
21492;SDS011;10908;50.690;4.400;2022-12-29T01:35:39;6.32;;;1.25;;
21492;SDS011;10908;50.690;4.400;2022-12-29T01:38:05;7.20;;;1.05;;
21492;SDS011;10908;50.690;4.400;2022-12-29T01:40:31;7.32;;;1.40;;
21492;SDS011;10908;50.690;4.400;2022-12-29T01:42:57;7.40;;;1.38;;
21492;SDS011;10908;50.690;4.400;2022-12-29T01:45:22;4.53;;;1.25;;
21492;SDS011;10908;50.690;4.400;2022-12-29T01:47:55;5.10;;;1.15;;
21492;SDS011;10908;50.690;4.400;2022-12-29T01:50:30;4.38;;;1.00;;
21492;SDS011;10908;50.690;4.400;2022-12-29T01:55:24;3.97;;;0.70;;
21492;SDS011;10908;50.690;4.400;2022-12-29T01:57:51;3.88;;;0.90;;
21492;SDS011;10908;50.690;4.400;2022-12-29T02:00:20;3.50;;;0.90;;
21492;SDS011;10908;50.690;4.400;2022-12-29T02:02:47;4.00;;;0.80;;
21492;SDS011;10908;50.690;4.400;2022-12-29T02:05:17;4.78;;;0.70;;
21492;SDS011;10908;50.690;4.400;2022-12-29T02:07:58;2.38;;;0.65;;
21492;SDS011;10908;50.690;4.400;2022-12-29T02:10:25;3.05;;;0.73;;
21492;SDS011;10908;50.690;4.400;2022-12-29T02:12:53;5.68;;;0.90;;
21492;SDS011;10908;50.690;4.400;2022-12-29T02:15:20;3.03;;;0.63;;
21492;SDS011;10908;50.690;4.400;2022-12-29T02:18:00;5.78;;;0.85;;
21492;SDS011;10908;50.690;4.400;2022-12-29T02:31:36;2.38;;;0.80;;
21492;SDS011;10908;50.690;4.400;2022-12-29T02:34:18;5.15;;;0.70;;
21492;SDS011;10908;50.690;4.400;2022-12-29T02:39:35;4.18;;;0.90;;
21492;SDS011;10908;50.690;4.400;2022-12-29T02:45:11;2.70;;;0.77;;
21492;SDS011;10908;50.690;4.400;2022-12-29T02:47:48;3.40;;;0.77;;
21492;SDS011;10908;50.690;4.400;2022-12-29T02:50:42;3.45;;;0.60;;
21492;SDS011;10908;50.690;4.400;2022-12-29T02:53:15;3.10;;;0.80;;
21492;SDS011;10908;50.690;4.400;2022-12-29T02:56:04;3.42;;;0.90;;
21492;SDS011;10908;50.690;4.400;2022-12-29T02:58:29;4.80;;;0.80;;
21492;SDS011;10908;50.690;4.400;2022-12-29T03:06:24;4.10;;;0.80;;
21492;SDS011;10908;50.690;4.400;2022-12-29T03:11:19;2.17;;;0.60;;
21492;SDS011;10908;50.690;4.400;2022-12-29T03:17:00;5.10;;;0.82;;
21492;SDS011;10908;50.690;4.400;2022-12-29T03:19:41;4.38;;;0.77;;
21492;SDS011;10908;50.690;4.400;2022-12-29T03:22:13;4.05;;;0.75;;
21492;SDS011;10908;50.690;4.400;2022-12-29T03:24:59;3.83;;;0.70;;
21492;SDS011;10908;50.690;4.400;2022-12-29T03:27:31;5.30;;;0.73;;
21492;SDS011;10908;50.690;4.400;2022-12-29T03:30:03;4.43;;;0.60;;
21492;SDS011;10908;50.690;4.400;2022-12-29T03:32:35;3.97;;;0.63;;
21492;SDS011;10908;50.690;4.400;2022-12-29T03:35:05;3.95;;;0.60;;
21492;SDS011;10908;50.690;4.400;2022-12-29T03:37:35;5.25;;;0.65;;
21492;SDS011;10908;50.690;4.400;2022-12-29T03:40:05;8.25;;;0.73;;
21492;SDS011;10908;50.690;4.400;2022-12-29T03:42:32;2.83;;;0.40;;
21492;SDS011;10908;50.690;4.400;2022-12-29T03:45:00;4.03;;;0.85;;
21492;SDS011;10908;50.690;4.400;2022-12-29T03:47:26;4.70;;;0.60;;
21492;SDS011;10908;50.690;4.400;2022-12-29T03:49:52;3.55;;;0.50;;
21492;SDS011;10908;50.690;4.400;2022-12-29T03:52:18;3.25;;;0.47;;
21492;SDS011;10908;50.690;4.400;2022-12-29T03:54:44;3.65;;;0.70;;
21492;SDS011;10908;50.690;4.400;2022-12-29T03:57:10;3.15;;;0.57;;
21492;SDS011;10908;50.690;4.400;2022-12-29T03:59:36;3.13;;;0.50;;
21492;SDS011;10908;50.690;4.400;2022-12-29T04:02:02;5.78;;;0.50;;
21492;SDS011;10908;50.690;4.400;2022-12-29T04:04:27;4.97;;;0.70;;
21492;SDS011;10908;50.690;4.400;2022-12-29T04:06:53;7.65;;;0.68;;
21492;SDS011;10908;50.690;4.400;2022-12-29T04:09:19;2.60;;;0.40;;
21492;SDS011;10908;50.690;4.400;2022-12-29T04:11:44;4.20;;;0.55;;
21492;SDS011;10908;50.690;4.400;2022-12-29T04:14:10;3.75;;;0.60;;
21492;SDS011;10908;50.690;4.400;2022-12-29T04:16:35;3.22;;;0.57;;
21492;SDS011;10908;50.690;4.400;2022-12-29T04:19:03;5.57;;;0.52;;
21492;SDS011;10908;50.690;4.400;2022-12-29T04:21:30;3.85;;;0.60;;
21492;SDS011;10908;50.690;4.400;2022-12-29T04:23:55;3.95;;;0.50;;
21492;SDS011;10908;50.690;4.400;2022-12-29T04:26:21;4.80;;;0.63;;
21492;SDS011;10908;50.690;4.400;2022-12-29T04:28:47;3.35;;;0.50;;
21492;SDS011;10908;50.690;4.400;2022-12-29T04:31:12;6.25;;;1.00;;
21492;SDS011;10908;50.690;4.400;2022-12-29T04:33:38;4.47;;;0.80;;
21492;SDS011;10908;50.690;4.400;2022-12-29T04:36:04;4.60;;;0.90;;
21492;SDS011;10908;50.690;4.400;2022-12-29T04:38:30;6.68;;;0.88;;
21492;SDS011;10908;50.690;4.400;2022-12-29T04:40:58;5.53;;;0.60;;
21492;SDS011;10908;50.690;4.400;2022-12-29T04:43:24;5.72;;;0.70;;
21492;SDS011;10908;50.690;4.400;2022-12-29T04:45:50;7.93;;;0.90;;
21492;SDS011;10908;50.690;4.400;2022-12-29T04:48:16;4.35;;;0.70;;
21492;SDS011;10908;50.690;4.400;2022-12-29T04:50:42;7.25;;;0.95;;
21492;SDS011;10908;50.690;4.400;2022-12-29T04:53:07;7.97;;;0.70;;
21492;SDS011;10908;50.690;4.400;2022-12-29T04:55:33;5.50;;;0.57;;
21492;SDS011;10908;50.690;4.400;2022-12-29T04:57:59;7.78;;;0.80;;
21492;SDS011;10908;50.690;4.400;2022-12-29T05:00:25;6.50;;;1.00;;
21492;SDS011;10908;50.690;4.400;2022-12-29T05:02:50;4.82;;;0.60;;
21492;SDS011;10908;50.690;4.400;2022-12-29T05:05:16;6.20;;;0.60;;
21492;SDS011;10908;50.690;4.400;2022-12-29T05:07:42;4.40;;;0.50;;
21492;SDS011;10908;50.690;4.400;2022-12-29T05:10:08;5.10;;;0.57;;
21492;SDS011;10908;50.690;4.400;2022-12-29T05:12:34;7.93;;;1.00;;
21492;SDS011;10908;50.690;4.400;2022-12-29T05:15:01;5.13;;;0.65;;
21492;SDS011;10908;50.690;4.400;2022-12-29T05:17:28;5.15;;;0.70;;
21492;SDS011;10908;50.690;4.400;2022-12-29T05:19:54;6.72;;;0.80;;
21492;SDS011;10908;50.690;4.400;2022-12-29T05:22:19;5.43;;;0.90;;
21492;SDS011;10908;50.690;4.400;2022-12-29T05:24:45;5.40;;;0.70;;
21492;SDS011;10908;50.690;4.400;2022-12-29T05:27:11;6.97;;;0.95;;
21492;SDS011;10908;50.690;4.400;2022-12-29T05:29:37;7.75;;;1.08;;
21492;SDS011;10908;50.690;4.400;2022-12-29T05:32:03;8.10;;;0.88;;
21492;SDS011;10908;50.690;4.400;2022-12-29T05:34:28;9.60;;;0.90;;
21492;SDS011;10908;50.690;4.400;2022-12-29T05:36:54;10.95;;;1.02;;
21492;SDS011;10908;50.690;4.400;2022-12-29T05:39:20;6.72;;;0.85;;
21492;SDS011;10908;50.690;4.400;2022-12-29T05:41:45;10.23;;;0.80;;
21492;SDS011;10908;50.690;4.400;2022-12-29T05:44:11;7.20;;;1.00;;
21492;SDS011;10908;50.690;4.400;2022-12-29T05:46:37;9.00;;;1.15;;
21492;SDS011;10908;50.690;4.400;2022-12-29T05:49:03;10.45;;;1.02;;
21492;SDS011;10908;50.690;4.400;2022-12-29T05:51:29;9.02;;;1.10;;
21492;SDS011;10908;50.690;4.400;2022-12-29T05:53:55;7.95;;;0.80;;
21492;SDS011;10908;50.690;4.400;2022-12-29T05:56:21;8.77;;;1.00;;
21492;SDS011;10908;50.690;4.400;2022-12-29T05:58:46;7.80;;;1.10;;
21492;SDS011;10908;50.690;4.400;2022-12-29T06:01:12;9.00;;;1.27;;
21492;SDS011;10908;50.690;4.400;2022-12-29T06:03:37;8.65;;;0.93;;
21492;SDS011;10908;50.690;4.400;2022-12-29T06:06:03;8.40;;;0.85;;
21492;SDS011;10908;50.690;4.400;2022-12-29T06:08:32;11.98;;;1.20;;
21492;SDS011;10908;50.690;4.400;2022-12-29T06:10:57;6.95;;;1.00;;
21492;SDS011;10908;50.690;4.400;2022-12-29T06:13:23;8.63;;;0.85;;
21492;SDS011;10908;50.690;4.400;2022-12-29T06:15:49;5.68;;;0.77;;
21492;SDS011;10908;50.690;4.400;2022-12-29T06:18:14;5.40;;;0.77;;
21492;SDS011;10908;50.690;4.400;2022-12-29T06:20:40;9.13;;;0.90;;
21492;SDS011;10908;50.690;4.400;2022-12-29T06:23:06;7.45;;;1.00;;
21492;SDS011;10908;50.690;4.400;2022-12-29T06:25:32;8.27;;;0.88;;
21492;SDS011;10908;50.690;4.400;2022-12-29T06:27:58;8.43;;;1.00;;
21492;SDS011;10908;50.690;4.400;2022-12-29T06:30:24;7.25;;;0.95;;
21492;SDS011;10908;50.690;4.400;2022-12-29T06:32:50;5.90;;;0.73;;
21492;SDS011;10908;50.690;4.400;2022-12-29T06:35:16;10.65;;;1.35;;
21492;SDS011;10908;50.690;4.400;2022-12-29T06:37:42;10.27;;;0.93;;
21492;SDS011;10908;50.690;4.400;2022-12-29T06:40:08;9.10;;;0.98;;
21492;SDS011;10908;50.690;4.400;2022-12-29T06:42:34;7.43;;;1.55;;
21492;SDS011;10908;50.690;4.400;2022-12-29T06:45:00;9.63;;;0.90;;
21492;SDS011;10908;50.690;4.400;2022-12-29T06:47:26;7.53;;;0.98;;
21492;SDS011;10908;50.690;4.400;2022-12-29T06:49:52;9.05;;;0.98;;
21492;SDS011;10908;50.690;4.400;2022-12-29T06:52:17;10.35;;;1.10;;
21492;SDS011;10908;50.690;4.400;2022-12-29T06:54:43;8.27;;;1.25;;
21492;SDS011;10908;50.690;4.400;2022-12-29T06:57:08;7.47;;;1.05;;
21492;SDS011;10908;50.690;4.400;2022-12-29T06:59:34;10.25;;;1.15;;
21492;SDS011;10908;50.690;4.400;2022-12-29T07:02:00;10.85;;;0.80;;
21492;SDS011;10908;50.690;4.400;2022-12-29T07:04:27;8.80;;;1.17;;
21492;SDS011;10908;50.690;4.400;2022-12-29T07:06:52;8.77;;;1.00;;
21492;SDS011;10908;50.690;4.400;2022-12-29T07:09:18;8.70;;;1.45;;
21492;SDS011;10908;50.690;4.400;2022-12-29T07:11:44;10.05;;;1.38;;
21492;SDS011;10908;50.690;4.400;2022-12-29T07:14:10;9.38;;;1.27;;
21492;SDS011;10908;50.690;4.400;2022-12-29T07:16:36;7.18;;;1.00;;
21492;SDS011;10908;50.690;4.400;2022-12-29T07:19:02;7.85;;;1.10;;
21492;SDS011;10908;50.690;4.400;2022-12-29T07:21:28;9.65;;;1.08;;
21492;SDS011;10908;50.690;4.400;2022-12-29T07:23:54;9.98;;;1.35;;
21492;SDS011;10908;50.690;4.400;2022-12-29T07:26:19;7.68;;;1.10;;
21492;SDS011;10908;50.690;4.400;2022-12-29T07:28:45;11.07;;;1.83;;
21492;SDS011;10908;50.690;4.400;2022-12-29T07:31:15;7.82;;;1.20;;
21492;SDS011;10908;50.690;4.400;2022-12-29T07:33:42;9.13;;;1.05;;
21492;SDS011;10908;50.690;4.400;2022-12-29T07:36:09;9.75;;;1.20;;
21492;SDS011;10908;50.690;4.400;2022-12-29T07:38:35;10.25;;;1.45;;
21492;SDS011;10908;50.690;4.400;2022-12-29T07:41:01;9.77;;;1.23;;
21492;SDS011;10908;50.690;4.400;2022-12-29T07:43:26;13.45;;;1.52;;
21492;SDS011;10908;50.690;4.400;2022-12-29T07:45:52;10.45;;;1.25;;
21492;SDS011;10908;50.690;4.400;2022-12-29T07:48:18;13.32;;;1.60;;
21492;SDS011;10908;50.690;4.400;2022-12-29T07:50:44;8.70;;;1.42;;
21492;SDS011;10908;50.690;4.400;2022-12-29T07:53:09;11.25;;;1.10;;
21492;SDS011;10908;50.690;4.400;2022-12-29T07:55:35;9.82;;;1.40;;
21492;SDS011;10908;50.690;4.400;2022-12-29T07:58:00;10.38;;;1.33;;
21492;SDS011;10908;50.690;4.400;2022-12-29T08:00:26;9.32;;;0.90;;
21492;SDS011;10908;50.690;4.400;2022-12-29T08:02:52;7.53;;;1.40;;
21492;SDS011;10908;50.690;4.400;2022-12-29T08:05:17;9.50;;;1.10;;
21492;SDS011;10908;50.690;4.400;2022-12-29T08:07:43;12.05;;;1.30;;
21492;SDS011;10908;50.690;4.400;2022-12-29T08:10:10;10.00;;;1.10;;
21492;SDS011;10908;50.690;4.400;2022-12-29T08:12:39;11.80;;;1.30;;
21492;SDS011;10908;50.690;4.400;2022-12-29T08:15:05;10.70;;;1.38;;
21492;SDS011;10908;50.690;4.400;2022-12-29T08:17:32;9.18;;;1.30;;
21492;SDS011;10908;50.690;4.400;2022-12-29T08:19:58;8.43;;;1.58;;
21492;SDS011;10908;50.690;4.400;2022-12-29T08:22:24;8.38;;;1.63;;
21492;SDS011;10908;50.690;4.400;2022-12-29T08:24:49;8.35;;;1.15;;
21492;SDS011;10908;50.690;4.400;2022-12-29T08:27:15;11.68;;;1.42;;
21492;SDS011;10908;50.690;4.400;2022-12-29T08:29:41;14.15;;;1.45;;
21492;SDS011;10908;50.690;4.400;2022-12-29T08:32:06;7.65;;;1.13;;
21492;SDS011;10908;50.690;4.400;2022-12-29T08:34:32;7.00;;;1.02;;
21492;SDS011;10908;50.690;4.400;2022-12-29T08:36:58;8.00;;;1.10;;
21492;SDS011;10908;50.690;4.400;2022-12-29T08:39:23;8.73;;;1.10;;
21492;SDS011;10908;50.690;4.400;2022-12-29T08:41:49;12.50;;;1.33;;
21492;SDS011;10908;50.690;4.400;2022-12-29T08:44:15;8.80;;;1.10;;
21492;SDS011;10908;50.690;4.400;2022-12-29T08:46:41;7.75;;;1.23;;
21492;SDS011;10908;50.690;4.400;2022-12-29T08:49:06;8.68;;;1.20;;
21492;SDS011;10908;50.690;4.400;2022-12-29T08:51:32;10.25;;;1.52;;
21492;SDS011;10908;50.690;4.400;2022-12-29T08:53:58;9.20;;;1.38;;
21492;SDS011;10908;50.690;4.400;2022-12-29T08:56:24;11.68;;;1.50;;
21492;SDS011;10908;50.690;4.400;2022-12-29T08:58:50;13.88;;;1.55;;
21492;SDS011;10908;50.690;4.400;2022-12-29T09:01:17;9.20;;;1.42;;
21492;SDS011;10908;50.690;4.400;2022-12-29T09:03:43;10.85;;;1.20;;
21492;SDS011;10908;50.690;4.400;2022-12-29T09:06:09;8.88;;;1.17;;
21492;SDS011;10908;50.690;4.400;2022-12-29T09:08:35;11.35;;;1.40;;
21492;SDS011;10908;50.690;4.400;2022-12-29T09:11:11;11.98;;;1.27;;
21492;SDS011;10908;50.690;4.400;2022-12-29T09:13:41;12.85;;;1.40;;
21492;SDS011;10908;50.690;4.400;2022-12-29T09:16:07;9.48;;;1.23;;
21492;SDS011;10908;50.690;4.400;2022-12-29T09:18:33;11.05;;;1.45;;
21492;SDS011;10908;50.690;4.400;2022-12-29T09:21:02;7.22;;;1.23;;
21492;SDS011;10908;50.690;4.400;2022-12-29T09:23:29;11.18;;;1.45;;
21492;SDS011;10908;50.690;4.400;2022-12-29T09:25:55;17.27;;;2.45;;
21492;SDS011;10908;50.690;4.400;2022-12-29T09:28:21;13.35;;;1.83;;
21492;SDS011;10908;50.690;4.400;2022-12-29T09:30:48;11.63;;;1.50;;
21492;SDS011;10908;50.690;4.400;2022-12-29T09:33:14;12.07;;;1.40;;
21492;SDS011;10908;50.690;4.400;2022-12-29T09:35:44;13.98;;;1.83;;
21492;SDS011;10908;50.690;4.400;2022-12-29T09:38:11;14.10;;;1.77;;
21492;SDS011;10908;50.690;4.400;2022-12-29T09:40:37;11.30;;;1.45;;
21492;SDS011;10908;50.690;4.400;2022-12-29T09:51:45;13.55;;;1.75;;
21492;SDS011;10908;50.690;4.400;2022-12-29T09:56:57;13.13;;;1.80;;
21492;SDS011;10908;50.690;4.400;2022-12-29T09:59:24;12.95;;;1.38;;
21492;SDS011;10908;50.690;4.400;2022-12-29T10:02:05;9.95;;;1.63;;
21492;SDS011;10908;50.690;4.400;2022-12-29T10:04:38;11.48;;;1.63;;
21492;SDS011;10908;50.690;4.400;2022-12-29T10:07:49;9.63;;;1.35;;
21492;SDS011;10908;50.690;4.400;2022-12-29T10:10:20;10.15;;;1.45;;
21492;SDS011;10908;50.690;4.400;2022-12-29T10:13:06;9.60;;;1.55;;
21492;SDS011;10908;50.690;4.400;2022-12-29T10:18:21;9.27;;;1.50;;
21492;SDS011;10908;50.690;4.400;2022-12-29T10:20:57;8.77;;;1.30;;
21492;SDS011;10908;50.690;4.400;2022-12-29T10:23:46;13.23;;;1.50;;
21492;SDS011;10908;50.690;4.400;2022-12-29T10:26:17;11.80;;;1.17;;
21492;SDS011;10908;50.690;4.400;2022-12-29T10:31:16;10.15;;;1.45;;
21492;SDS011;10908;50.690;4.400;2022-12-29T10:33:46;11.75;;;1.77;;
21492;SDS011;10908;50.690;4.400;2022-12-29T10:36:18;15.38;;;1.80;;
21492;SDS011;10908;50.690;4.400;2022-12-29T10:41:46;11.30;;;1.70;;
21492;SDS011;10908;50.690;4.400;2022-12-29T10:44:19;13.13;;;1.80;;
21492;SDS011;10908;50.690;4.400;2022-12-29T10:47:06;12.70;;;1.27;;
21492;SDS011;10908;50.690;4.400;2022-12-29T10:49:37;15.00;;;1.73;;
21492;SDS011;10908;50.690;4.400;2022-12-29T10:52:07;8.98;;;1.42;;
21492;SDS011;10908;50.690;4.400;2022-12-29T10:57:11;9.18;;;1.33;;
21492;SDS011;10908;50.690;4.400;2022-12-29T10:59:57;16.23;;;2.08;;
21492;SDS011;10908;50.690;4.400;2022-12-29T11:05:20;12.52;;;1.80;;
21492;SDS011;10908;50.690;4.400;2022-12-29T11:07:57;8.48;;;1.30;;
21492;SDS011;10908;50.690;4.400;2022-12-29T11:12:54;11.02;;;1.92;;
21492;SDS011;10908;50.690;4.400;2022-12-29T11:15:24;13.63;;;2.03;;
21492;SDS011;10908;50.690;4.400;2022-12-29T11:17:51;18.27;;;2.58;;
21492;SDS011;10908;50.690;4.400;2022-12-29T11:23:02;16.05;;;1.90;;
21492;SDS011;10908;50.690;4.400;2022-12-29T11:25:30;12.30;;;1.73;;
21492;SDS011;10908;50.690;4.400;2022-12-29T11:28:12;12.02;;;1.77;;
21492;SDS011;10908;50.690;4.400;2022-12-29T11:30:40;9.55;;;1.52;;
21492;SDS011;10908;50.690;4.400;2022-12-29T11:33:05;12.88;;;1.60;;
21492;SDS011;10908;50.690;4.400;2022-12-29T11:35:40;5.20;;;1.00;;
21492;SDS011;10908;50.690;4.400;2022-12-29T11:38:18;14.27;;;1.92;;
21492;SDS011;10908;50.690;4.400;2022-12-29T11:40:47;16.42;;;1.88;;
21492;SDS011;10908;50.690;4.400;2022-12-29T11:43:46;11.10;;;1.60;;
21492;SDS011;10908;50.690;4.400;2022-12-29T11:46:16;10.73;;;1.20;;
21492;SDS011;10908;50.690;4.400;2022-12-29T11:48:46;10.13;;;1.33;;
21492;SDS011;10908;50.690;4.400;2022-12-29T11:51:12;10.20;;;1.27;;
21492;SDS011;10908;50.690;4.400;2022-12-29T11:53:47;14.00;;;1.83;;
21492;SDS011;10908;50.690;4.400;2022-12-29T11:56:17;11.25;;;1.63;;
21492;SDS011;10908;50.690;4.400;2022-12-29T11:58:47;10.13;;;1.35;;
21492;SDS011;10908;50.690;4.400;2022-12-29T12:03:42;9.52;;;1.58;;
21492;SDS011;10908;50.690;4.400;2022-12-29T12:06:14;15.02;;;1.58;;
21492;SDS011;10908;50.690;4.400;2022-12-29T12:11:22;9.82;;;1.30;;
21492;SDS011;10908;50.690;4.400;2022-12-29T12:17:44;10.20;;;1.30;;
21492;SDS011;10908;50.690;4.400;2022-12-29T12:25:01;13.00;;;2.13;;
21492;SDS011;10908;50.690;4.400;2022-12-29T12:30:17;9.25;;;1.80;;
21492;SDS011;10908;50.690;4.400;2022-12-29T12:32:50;12.20;;;1.40;;
21492;SDS011;10908;50.690;4.400;2022-12-29T12:52:04;9.60;;;1.65;;
21492;SDS011;10908;50.690;4.400;2022-12-29T12:54:45;11.57;;;1.95;;
21492;SDS011;10908;50.690;4.400;2022-12-29T12:57:22;9.13;;;2.03;;
21492;SDS011;10908;50.690;4.400;2022-12-29T13:06:00;15.77;;;2.20;;
21492;SDS011;10908;50.690;4.400;2022-12-29T13:11:13;10.70;;;1.80;;
21492;SDS011;10908;50.690;4.400;2022-12-29T13:16:48;13.45;;;1.80;;
21492;SDS011;10908;50.690;4.400;2022-12-29T13:19:32;14.88;;;2.00;;
21492;SDS011;10908;50.690;4.400;2022-12-29T13:22:22;11.25;;;1.98;;
21492;SDS011;10908;50.690;4.400;2022-12-29T13:25:08;12.93;;;1.83;;
21492;SDS011;10908;50.690;4.400;2022-12-29T13:36:25;14.90;;;1.80;;
21492;SDS011;10908;50.690;4.400;2022-12-29T13:39:11;15.85;;;2.95;;
21492;SDS011;10908;50.690;4.400;2022-12-29T13:41:54;14.43;;;2.42;;
21492;SDS011;10908;50.690;4.400;2022-12-29T13:44:31;15.27;;;2.28;;
21492;SDS011;10908;50.690;4.400;2022-12-29T13:47:06;15.27;;;2.40;;
21492;SDS011;10908;50.690;4.400;2022-12-29T13:49:52;12.45;;;1.70;;
21492;SDS011;10908;50.690;4.400;2022-12-29T13:52:55;17.20;;;2.30;;
21492;SDS011;10908;50.690;4.400;2022-12-29T13:55:35;16.98;;;2.20;;
21492;SDS011;10908;50.690;4.400;2022-12-29T14:03:48;15.05;;;2.63;;
21492;SDS011;10908;50.690;4.400;2022-12-29T14:06:26;15.65;;;2.10;;
21492;SDS011;10908;50.690;4.400;2022-12-29T14:08:57;12.90;;;2.30;;
21492;SDS011;10908;50.690;4.400;2022-12-29T14:11:39;18.55;;;2.38;;
21492;SDS011;10908;50.690;4.400;2022-12-29T14:17:10;12.07;;;1.80;;
21492;SDS011;10908;50.690;4.400;2022-12-29T14:19:39;13.93;;;1.92;;
21492;SDS011;10908;50.690;4.400;2022-12-29T14:22:09;12.82;;;1.90;;
21492;SDS011;10908;50.690;4.400;2022-12-29T14:24:40;14.40;;;2.38;;
21492;SDS011;10908;50.690;4.400;2022-12-29T14:34:46;12.25;;;2.00;;
21492;SDS011;10908;50.690;4.400;2022-12-29T14:40:02;12.25;;;1.85;;
21492;SDS011;10908;50.690;4.400;2022-12-29T14:42:42;12.68;;;1.75;;
21492;SDS011;10908;50.690;4.400;2022-12-29T14:47:40;18.05;;;2.42;;
21492;SDS011;10908;50.690;4.400;2022-12-29T14:52:59;16.73;;;2.70;;
21492;SDS011;10908;50.690;4.400;2022-12-29T14:55:36;13.77;;;2.15;;
21492;SDS011;10908;50.690;4.400;2022-12-29T14:58:06;12.80;;;2.05;;
21492;SDS011;10908;50.690;4.400;2022-12-29T15:00:54;15.88;;;2.40;;
21492;SDS011;10908;50.690;4.400;2022-12-29T15:03:43;13.82;;;2.78;;
21492;SDS011;10908;50.690;4.400;2022-12-29T15:06:11;14.70;;;2.65;;
21492;SDS011;10908;50.690;4.400;2022-12-29T15:08:56;15.93;;;2.63;;
21492;SDS011;10908;50.690;4.400;2022-12-29T15:11:41;16.55;;;2.67;;
21492;SDS011;10908;50.690;4.400;2022-12-29T15:14:32;17.10;;;3.25;;
21492;SDS011;10908;50.690;4.400;2022-12-29T15:16:58;15.52;;;2.72;;
21492;SDS011;10908;50.690;4.400;2022-12-29T15:19:25;14.60;;;3.30;;
21492;SDS011;10908;50.690;4.400;2022-12-29T15:21:52;20.40;;;3.65;;
21492;SDS011;10908;50.690;4.400;2022-12-29T15:24:18;24.13;;;4.03;;
21492;SDS011;10908;50.690;4.400;2022-12-29T15:26:49;18.95;;;3.38;;
21492;SDS011;10908;50.690;4.400;2022-12-29T15:29:38;15.23;;;2.92;;
21492;SDS011;10908;50.690;4.400;2022-12-29T15:34:40;10.70;;;2.35;;
21492;SDS011;10908;50.690;4.400;2022-12-29T15:37:15;7.93;;;1.50;;
21492;SDS011;10908;50.690;4.400;2022-12-29T15:39:47;12.75;;;1.95;;
21492;SDS011;10908;50.690;4.400;2022-12-29T15:45:32;15.20;;;2.10;;
21492;SDS011;10908;50.690;4.400;2022-12-29T15:47:59;13.38;;;1.88;;
21492;SDS011;10908;50.690;4.400;2022-12-29T15:52:58;14.88;;;1.75;;
21492;SDS011;10908;50.690;4.400;2022-12-29T15:55:32;18.55;;;2.33;;
21492;SDS011;10908;50.690;4.400;2022-12-29T15:58:00;18.58;;;2.20;;
21492;SDS011;10908;50.690;4.400;2022-12-29T16:00:29;12.48;;;2.20;;
21492;SDS011;10908;50.690;4.400;2022-12-29T16:03:01;15.50;;;2.30;;
21492;SDS011;10908;50.690;4.400;2022-12-29T16:05:34;13.25;;;2.05;;
21492;SDS011;10908;50.690;4.400;2022-12-29T16:08:02;13.68;;;2.20;;
21492;SDS011;10908;50.690;4.400;2022-12-29T16:10:32;12.23;;;2.08;;
21492;SDS011;10908;50.690;4.400;2022-12-29T16:13:04;14.82;;;2.25;;
21492;SDS011;10908;50.690;4.400;2022-12-29T16:15:44;17.35;;;2.45;;
21492;SDS011;10908;50.690;4.400;2022-12-29T16:18:14;15.98;;;2.65;;
21492;SDS011;10908;50.690;4.400;2022-12-29T16:20:49;13.27;;;2.45;;
21492;SDS011;10908;50.690;4.400;2022-12-29T16:23:23;13.27;;;2.40;;
21492;SDS011;10908;50.690;4.400;2022-12-29T16:25:51;15.32;;;2.30;;
21492;SDS011;10908;50.690;4.400;2022-12-29T16:28:54;13.23;;;2.72;;
21492;SDS011;10908;50.690;4.400;2022-12-29T16:31:17;11.52;;;2.25;;
21492;SDS011;10908;50.690;4.400;2022-12-29T16:33:52;11.35;;;2.60;;
21492;SDS011;10908;50.690;4.400;2022-12-29T16:36:27;10.85;;;2.00;;
21492;SDS011;10908;50.690;4.400;2022-12-29T16:41:53;13.45;;;2.67;;
21492;SDS011;10908;50.690;4.400;2022-12-29T16:44:29;13.13;;;2.45;;
21492;SDS011;10908;50.690;4.400;2022-12-29T16:47:03;11.98;;;2.47;;
21492;SDS011;10908;50.690;4.400;2022-12-29T16:49:35;10.25;;;1.70;;
21492;SDS011;10908;50.690;4.400;2022-12-29T16:52:13;15.30;;;2.13;;
21492;SDS011;10908;50.690;4.400;2022-12-29T16:54:48;12.57;;;1.90;;
21492;SDS011;10908;50.690;4.400;2022-12-29T16:57:27;7.55;;;1.42;;
21492;SDS011;10908;50.690;4.400;2022-12-29T16:59:55;16.77;;;4.75;;
21492;SDS011;10908;50.690;4.400;2022-12-29T17:02:29;9.43;;;1.85;;
21492;SDS011;10908;50.690;4.400;2022-12-29T17:04:57;7.85;;;1.77;;
21492;SDS011;10908;50.690;4.400;2022-12-29T17:07:23;9.43;;;1.77;;
21492;SDS011;10908;50.690;4.400;2022-12-29T17:09:51;10.00;;;1.70;;
21492;SDS011;10908;50.690;4.400;2022-12-29T17:12:20;10.13;;;1.80;;
21492;SDS011;10908;50.690;4.400;2022-12-29T17:14:54;11.40;;;1.65;;
21492;SDS011;10908;50.690;4.400;2022-12-29T17:20:17;6.90;;;1.38;;
21492;SDS011;10908;50.690;4.400;2022-12-29T17:22:43;8.68;;;1.58;;
21492;SDS011;10908;50.690;4.400;2022-12-29T17:25:19;11.80;;;2.03;;
21492;SDS011;10908;50.690;4.400;2022-12-29T17:28:25;11.55;;;3.45;;
21492;SDS011;10908;50.690;4.400;2022-12-29T17:30:45;13.63;;;3.90;;
21492;SDS011;10908;50.690;4.400;2022-12-29T17:33:12;9.32;;;2.80;;
21492;SDS011;10908;50.690;4.400;2022-12-29T17:35:40;11.10;;;3.10;;
21492;SDS011;10908;50.690;4.400;2022-12-29T17:40:47;12.77;;;2.70;;
21492;SDS011;10908;50.690;4.400;2022-12-29T17:43:14;11.60;;;2.42;;